Current Conditions
Mostly Clear
Conditions



Pressure
1019.92 (hPa) - 30.12 (inHG)
Visibility

10.0 (km) - 6.2 (miles)
   Temperature
8  °C
Temperature
5  °C
Dewpoint
82  %
 Humidity
   Wind Speed
6.3  m/s
14  mph
23  km/h
12  kts
   Wind Direction
N
45°
E
90°
135°
S
180°
225°
W
270°
315°
 190°

Due South
   Airport Data
ESGG
Gothenburg-Landvetter Airport
Metar :ESGG 241820Z 19012KT CAVOK 08/05 Q1020
Sun 24th October 19:20 pm
   Raw Metar Info
Raw METAR is the most common format in the world for the transmission of observational weather data. It is highly standardized through the International Civil Aviation Organization (ICAO), which allows it to be understood throughout most of the world.
   API Info
Data Provided by
https://www.checkwx.com/weather/ESGG

Aviation Weather providing METAR, TAF, AIRMET, SIGMET and OUTLOOK Weather Reports
   © Info
CSS/SVG/PHP scripts were developed by weather34.com for use in the weather34 template © 2015-2021

Guide Info provided by Metar-Wikipedia